createdAt,value
2019-06-26T00:00:50.338Z,18.70
2019-06-26T00:03:38.869Z,18.70
2019-06-26T00:06:26.712Z,18.70
2019-06-26T00:09:14.876Z,18.70
2019-06-26T00:12:02.672Z,18.60
2019-06-26T00:14:52.092Z,18.60
2019-06-26T00:17:40.058Z,18.50
2019-06-26T00:20:28.342Z,18.50
2019-06-26T00:23:16.645Z,18.50
2019-06-26T00:26:05.034Z,18.40
2019-06-26T00:28:53.029Z,18.30
2019-06-26T00:31:41.881Z,18.40
2019-06-26T00:34:30.479Z,18.50
2019-06-26T00:37:18.468Z,18.30
2019-06-26T00:40:07.827Z,18.30
2019-06-26T00:42:56.248Z,18.30
2019-06-26T00:45:44.541Z,18.30
2019-06-26T00:48:32.749Z,18.10
2019-06-26T00:51:21.075Z,18.20
2019-06-26T00:54:09.547Z,18.20
2019-06-26T00:56:58.040Z,18.20
2019-06-26T00:59:46.202Z,18.10
2019-06-26T01:02:34.209Z,18.10
2019-06-26T01:05:22.084Z,18.20
2019-06-26T01:08:10.200Z,18.10
2019-06-26T01:10:58.421Z,18.10
2019-06-26T01:13:57.582Z,18.00
2019-06-26T01:16:36.205Z,18.00
2019-06-26T01:19:24.888Z,18.10
2019-06-26T01:22:13.205Z,18.10
2019-06-26T01:25:01.090Z,18.10
2019-06-26T01:27:49.433Z,18.00
2019-06-26T01:30:37.857Z,18.00
2019-06-26T01:33:26.513Z,18.00
2019-06-26T01:36:14.538Z,18.00
2019-06-26T01:39:03.053Z,18.00
2019-06-26T01:41:51.758Z,17.90
2019-06-26T01:44:39.721Z,18.00
2019-06-26T01:47:27.527Z,18.00
2019-06-26T01:50:16.874Z,18.00
2019-06-26T01:53:06.070Z,18.00
2019-06-26T01:55:53.873Z,17.90
2019-06-26T01:58:42.157Z,17.80
2019-06-26T02:01:29.993Z,17.80
2019-06-26T02:04:18.547Z,17.80
2019-06-26T02:07:06.530Z,17.80
2019-06-26T02:09:55.298Z,17.70
2019-06-26T02:12:43.422Z,17.60
2019-06-26T02:15:31.656Z,17.60
2019-06-26T02:18:33.463Z,17.70
2019-06-26T02:21:21.267Z,17.70
2019-06-26T02:24:09.365Z,17.60
2019-06-26T02:26:57.798Z,17.60
2019-06-26T02:29:45.963Z,17.50
2019-06-26T02:32:34.556Z,17.50
2019-06-26T02:35:22.471Z,17.50
2019-06-26T02:38:10.782Z,17.40
2019-06-26T02:40:58.989Z,17.40
2019-06-26T02:43:47.527Z,17.30
2019-06-26T02:46:35.764Z,17.30
2019-06-26T02:49:23.862Z,17.30
2019-06-26T02:52:12.357Z,17.20
2019-06-26T02:55:01.019Z,17.20
2019-06-26T02:57:49.065Z,17.20
2019-06-26T03:00:37.068Z,17.20
2019-06-26T03:03:25.025Z,17.20
2019-06-26T03:06:13.944Z,17.10
2019-06-26T03:09:02.120Z,17.10
2019-06-26T03:11:50.449Z,17.20
2019-06-26T03:14:38.862Z,17.20
2019-06-26T03:17:26.632Z,17.20
2019-06-26T03:20:16.704Z,17.10
2019-06-26T03:23:05.574Z,17.10
2019-06-26T03:25:53.412Z,17.10
2019-06-26T03:28:41.314Z,17.10
2019-06-26T03:31:29.381Z,17.00
2019-06-26T03:34:17.285Z,17.00
2019-06-26T03:37:06.880Z,17.00
2019-06-26T03:39:54.902Z,17.00
2019-06-26T03:42:43.376Z,17.00
2019-06-26T03:45:32.149Z,17.10
2019-06-26T03:48:20.552Z,17.10
2019-06-26T03:51:08.309Z,17.00
2019-06-26T03:53:55.971Z,16.90
2019-06-26T03:56:44.462Z,16.90
2019-06-26T03:59:32.764Z,16.90
2019-06-26T04:02:20.547Z,16.90
2019-06-26T04:05:29.579Z,17.00
2019-06-26T04:08:17.322Z,16.80
2019-06-26T04:11:05.494Z,16.80
2019-06-26T04:13:53.361Z,16.80
2019-06-26T04:16:43.543Z,16.90
2019-06-26T04:19:31.303Z,17.00
2019-06-26T04:22:19.346Z,17.00
2019-06-26T04:25:08.115Z,17.00
2019-06-26T04:27:56.318Z,16.90
2019-06-26T04:30:44.162Z,17.00
2019-06-26T04:33:32.109Z,17.00
2019-06-26T04:36:20.214Z,16.90
2019-06-26T04:39:08.070Z,16.90
2019-06-26T04:41:55.753Z,16.90
2019-06-26T04:44:44.003Z,16.90
2019-06-26T04:47:32.275Z,16.80
2019-06-26T04:50:21.044Z,16.90
2019-06-26T04:53:09.709Z,16.90
2019-06-26T04:55:59.682Z,16.90
2019-06-26T04:58:47.274Z,16.90
2019-06-26T05:01:34.982Z,17.00
2019-06-26T05:04:23.425Z,17.00
2019-06-26T05:07:11.158Z,17.00
2019-06-26T05:09:59.717Z,16.90
2019-06-26T05:12:47.869Z,16.90
2019-06-26T05:15:35.825Z,17.00
2019-06-26T05:18:24.092Z,17.00
2019-06-26T05:21:12.131Z,17.00
2019-06-26T05:24:00.374Z,16.90
2019-06-26T05:26:48.228Z,17.00
2019-06-26T05:29:36.315Z,17.00
2019-06-26T05:32:24.901Z,17.10
2019-06-26T05:35:13.582Z,17.00
2019-06-26T05:38:02.081Z,17.00
2019-06-26T05:40:50.183Z,17.00
2019-06-26T05:43:38.481Z,17.00
2019-06-26T05:46:30.929Z,17.00
2019-06-26T05:49:16.018Z,17.00
2019-06-26T05:52:03.924Z,17.00
2019-06-26T05:54:54.122Z,17.00
2019-06-26T05:57:42.355Z,17.00
2019-06-26T06:00:30.100Z,17.10
2019-06-26T06:03:18.267Z,17.10
2019-06-26T06:06:06.866Z,17.10
2019-06-26T06:08:54.541Z,17.20
2019-06-26T06:11:42.495Z,17.20
2019-06-26T06:14:30.661Z,17.40
2019-06-26T06:17:18.765Z,17.40
2019-06-26T06:20:08.396Z,17.50
2019-06-26T06:22:56.583Z,17.40
2019-06-26T06:25:44.378Z,17.40
2019-06-26T06:28:32.868Z,17.40
2019-06-26T06:31:21.410Z,17.30
2019-06-26T06:34:09.419Z,17.40
2019-06-26T06:36:57.663Z,17.40
2019-06-26T06:39:45.755Z,17.40
2019-06-26T06:42:33.605Z,17.50
2019-06-26T06:45:22.092Z,17.40
2019-06-26T06:48:09.885Z,17.40
2019-06-26T06:50:58.544Z,17.40
2019-06-26T06:53:47.088Z,17.50
2019-06-26T06:56:35.755Z,17.50
2019-06-26T06:59:24.880Z,17.60
2019-06-26T07:02:12.763Z,17.70
2019-06-26T07:05:00.869Z,17.60
2019-06-26T07:07:49.404Z,17.70
2019-06-26T07:10:37.701Z,17.70
2019-06-26T07:13:25.890Z,17.70
2019-06-26T07:16:13.678Z,17.70
2019-06-26T07:19:01.992Z,17.80
2019-06-26T07:21:49.871Z,17.80
2019-06-26T07:24:37.963Z,17.90
2019-06-26T07:27:25.935Z,18.00
2019-06-26T07:30:14.247Z,18.20
2019-06-26T07:33:03.024Z,18.10
2019-06-26T07:35:51.426Z,18.10
2019-06-26T07:38:39.615Z,18.10
2019-06-26T07:41:27.717Z,18.20
2019-06-26T07:44:17.061Z,18.30
2019-06-26T07:47:12.702Z,18.30
2019-06-26T07:49:55.302Z,18.30
2019-06-26T07:52:43.746Z,18.40
2019-06-26T07:55:31.302Z,18.40
2019-06-26T07:58:19.740Z,18.50
2019-06-26T08:01:08.037Z,18.60
2019-06-26T08:03:56.091Z,18.50
2019-06-26T08:06:43.757Z,18.60
2019-06-26T08:09:31.983Z,18.80
2019-06-26T08:12:19.658Z,18.80
2019-06-26T08:15:08.507Z,18.80
2019-06-26T08:18:00.865Z,18.70
2019-06-26T08:21:00.702Z,18.80
2019-06-26T08:23:37.139Z,18.70
2019-06-26T08:26:25.874Z,18.60
2019-06-26T08:29:13.635Z,18.60
2019-06-26T08:32:01.709Z,18.60
2019-06-26T08:34:49.537Z,18.60
2019-06-26T08:37:38.249Z,18.50
2019-06-26T08:40:27.504Z,18.60
2019-06-26T08:43:15.504Z,18.50
2019-06-26T08:46:03.409Z,18.50
2019-06-26T08:48:53.163Z,18.50
2019-06-26T08:51:41.419Z,18.40
2019-06-26T08:54:29.745Z,18.20
2019-06-26T08:57:17.926Z,18.30
2019-06-26T09:00:08.381Z,18.30
2019-06-26T09:02:56.373Z,18.30
2019-06-26T09:05:48.533Z,18.40
2019-06-26T09:08:33.553Z,18.30
2019-06-26T09:11:22.102Z,18.20
2019-06-26T09:14:09.977Z,18.20
2019-06-26T09:16:58.984Z,18.20
2019-06-26T09:19:47.265Z,18.40
2019-06-26T09:22:36.389Z,18.50
2019-06-26T09:25:24.820Z,18.60
2019-06-26T09:28:12.726Z,18.50
2019-06-26T09:31:01.070Z,18.50
2019-06-26T09:33:50.655Z,18.40
2019-06-26T09:36:39.162Z,18.40
2019-06-26T09:39:27.418Z,18.40
2019-06-26T09:42:19.381Z,18.40
2019-06-26T09:45:09.641Z,18.50
2019-06-26T09:47:57.799Z,18.60
2019-06-26T09:50:47.593Z,18.60
2019-06-26T09:53:46.663Z,18.70
2019-06-26T09:56:25.002Z,18.80
2019-06-26T09:59:12.802Z,18.50
2019-06-26T10:02:00.632Z,18.60
2019-06-26T10:04:48.812Z,18.60
2019-06-26T10:07:37.373Z,18.50
2019-06-26T10:10:25.245Z,18.60
2019-06-26T10:13:13.069Z,18.60
2019-06-26T10:16:01.298Z,18.70
2019-06-26T10:18:49.459Z,18.60
2019-06-26T10:21:37.918Z,18.80
2019-06-26T10:24:26.463Z,18.80
2019-06-26T10:27:14.840Z,18.70
2019-06-26T10:30:03.532Z,18.80
2019-06-26T10:32:51.703Z,18.70
2019-06-26T10:35:39.982Z,18.70
2019-06-26T10:38:27.865Z,18.80
2019-06-26T10:41:16.191Z,18.80
2019-06-26T10:44:05.216Z,18.80
2019-06-26T10:46:53.229Z,18.70
2019-06-26T10:49:41.850Z,18.60
2019-06-26T10:52:30.047Z,18.60
2019-06-26T10:55:18.257Z,18.50
2019-06-26T10:58:07.027Z,18.50
2019-06-26T11:00:55.583Z,18.50
2019-06-26T11:03:44.321Z,18.40
2019-06-26T11:06:31.983Z,18.60
2019-06-26T11:09:19.866Z,18.70
2019-06-26T11:12:07.707Z,18.70
2019-06-26T11:14:55.911Z,18.60
2019-06-26T11:17:43.861Z,18.70
2019-06-26T11:20:32.273Z,18.60
2019-06-26T11:23:20.438Z,18.60
2019-06-26T11:26:08.477Z,18.60
2019-06-26T11:28:56.059Z,18.60
2019-06-26T11:31:44.159Z,18.70
2019-06-26T11:34:32.613Z,18.70
2019-06-26T11:37:22.907Z,18.80
2019-06-26T11:40:12.004Z,18.80
2019-06-26T11:43:00.262Z,18.80
2019-06-26T11:45:48.666Z,18.90
2019-06-26T11:48:37.373Z,18.90
2019-06-26T11:51:25.667Z,18.90
2019-06-26T11:54:13.617Z,18.90
2019-06-26T11:57:01.925Z,19.00
2019-06-26T11:59:51.230Z,19.10
2019-06-26T12:02:39.500Z,18.90
2019-06-26T12:05:28.161Z,18.90
2019-06-26T12:08:18.537Z,18.90
2019-06-26T12:11:05.880Z,18.90
2019-06-26T12:13:54.452Z,19.10
2019-06-26T12:16:42.228Z,19.00
2019-06-26T12:19:30.795Z,19.20
2019-06-26T12:22:19.267Z,19.30
2019-06-26T12:25:08.764Z,19.10
2019-06-26T12:27:56.644Z,19.20
2019-06-26T12:30:44.809Z,19.20
2019-06-26T12:33:32.673Z,19.10
2019-06-26T12:36:21.808Z,19.10
2019-06-26T12:39:10.109Z,19.10
2019-06-26T12:41:58.266Z,19.00
2019-06-26T12:44:46.191Z,19.10
2019-06-26T12:47:34.773Z,19.40
2019-06-26T12:50:34.535Z,19.40
2019-06-26T12:53:13.563Z,19.30
2019-06-26T12:56:02.150Z,19.20
2019-06-26T12:58:50.197Z,19.20
2019-06-26T13:01:38.173Z,19.30
2019-06-26T13:04:26.665Z,19.20
2019-06-26T13:07:14.880Z,19.30
2019-06-26T13:10:07.224Z,19.40
2019-06-26T13:12:54.931Z,19.20
2019-06-26T13:15:43.008Z,19.20
2019-06-26T13:18:31.680Z,19.40
2019-06-26T13:21:19.852Z,19.30
2019-06-26T13:24:07.794Z,19.40
2019-06-26T13:26:55.658Z,19.50
2019-06-26T13:29:43.921Z,19.50
2019-06-26T13:32:32.287Z,19.60
2019-06-26T13:35:23.423Z,19.60
2019-06-26T13:38:10.471Z,19.80
2019-06-26T13:41:00.797Z,19.80
2019-06-26T13:43:48.554Z,19.60
2019-06-26T13:46:36.747Z,19.30
2019-06-26T13:49:24.539Z,19.40
2019-06-26T13:52:12.406Z,19.40
2019-06-26T13:55:00.382Z,19.60
2019-06-26T13:57:48.598Z,19.80
2019-06-26T14:00:38.671Z,19.90
2019-06-26T14:03:26.397Z,19.90
2019-06-26T14:06:14.673Z,19.60
2019-06-26T14:09:02.431Z,19.90
2019-06-26T14:11:51.097Z,19.90
2019-06-26T14:14:56.177Z,19.80
2019-06-26T14:17:29.276Z,19.90
2019-06-26T14:20:17.606Z,19.90
2019-06-26T14:23:05.593Z,19.90
2019-06-26T14:25:53.738Z,20.10
2019-06-26T14:28:42.096Z,19.90
2019-06-26T14:31:30.585Z,20.10
2019-06-26T14:34:18.226Z,20.00
2019-06-26T14:37:06.443Z,19.90
2019-06-26T14:39:54.049Z,20.00
2019-06-26T14:42:42.361Z,20.30
2019-06-26T14:45:30.208Z,20.40
2019-06-26T14:48:18.189Z,20.20
2019-06-26T14:51:06.442Z,20.20
2019-06-26T14:53:54.783Z,20.60
2019-06-26T14:56:43.223Z,20.60
2019-06-26T14:59:31.675Z,20.60
2019-06-26T15:02:19.667Z,20.50
2019-06-26T15:05:08.667Z,20.70
2019-06-26T15:07:56.552Z,20.50
2019-06-26T15:10:45.140Z,20.40
2019-06-26T15:13:33.395Z,20.70
2019-06-26T15:16:21.315Z,20.70
2019-06-26T15:19:09.988Z,20.40
2019-06-26T15:21:58.923Z,20.40
2019-06-26T15:24:46.933Z,20.30
2019-06-26T15:27:35.415Z,20.10
2019-06-26T15:30:24.273Z,20.20
2019-06-26T15:33:11.955Z,20.30
2019-06-26T15:35:59.758Z,20.00
2019-06-26T15:39:02.992Z,19.80
2019-06-26T15:41:51.365Z,19.70
2019-06-26T15:44:39.541Z,19.80
2019-06-26T15:47:27.504Z,19.60
2019-06-26T15:50:15.979Z,19.80
2019-06-26T15:53:03.849Z,19.70
2019-06-26T15:55:51.508Z,19.70
2019-06-26T15:58:39.223Z,19.60
2019-06-26T16:01:26.902Z,19.70
2019-06-26T16:04:15.458Z,19.70
2019-06-26T16:07:07.939Z,19.70
2019-06-26T16:09:54.277Z,19.80
2019-06-26T16:12:42.695Z,19.70
2019-06-26T16:15:31.321Z,20.10
2019-06-26T16:18:21.225Z,20.60
2019-06-26T16:21:09.582Z,20.80
2019-06-26T16:23:58.026Z,20.90
2019-06-26T16:26:46.919Z,21.10
2019-06-26T16:29:34.715Z,21.10
2019-06-26T16:32:22.571Z,21.40
2019-06-26T16:35:12.321Z,21.30
2019-06-26T16:37:59.701Z,21.30
2019-06-26T16:40:47.879Z,21.00
2019-06-26T16:43:36.141Z,20.90
2019-06-26T16:46:24.671Z,21.10
2019-06-26T16:49:33.530Z,21.00
2019-06-26T16:52:48.550Z,21.30
2019-06-26T16:55:29.889Z,21.40
2019-06-26T16:58:19.845Z,21.40
2019-06-26T17:01:07.994Z,21.30
2019-06-26T17:03:56.619Z,21.70
2019-06-26T17:06:44.908Z,21.70
2019-06-26T17:09:32.683Z,21.40
2019-06-26T17:12:20.702Z,21.40
2019-06-26T17:15:10.413Z,20.90
2019-06-26T17:17:58.789Z,21.20
2019-06-26T17:20:47.492Z,21.60
2019-06-26T17:23:35.515Z,21.80
2019-06-26T17:26:23.910Z,21.70
2019-06-26T17:29:12.050Z,21.80
2019-06-26T17:32:00.933Z,21.90
2019-06-26T17:34:48.763Z,21.70
2019-06-26T17:37:36.772Z,21.50
2019-06-26T17:40:26.863Z,21.20
2019-06-26T17:43:14.844Z,21.60
2019-06-26T17:46:02.745Z,21.80
2019-06-26T17:48:51.353Z,21.60
2019-06-26T17:51:39.502Z,21.60
2019-06-26T17:54:28.736Z,21.80
2019-06-26T17:57:16.611Z,21.70
2019-06-26T18:00:07.485Z,22.10
2019-06-26T18:02:55.329Z,21.20
2019-06-26T18:05:43.163Z,21.10
2019-06-26T18:08:31.040Z,21.00
2019-06-26T18:11:19.079Z,20.80
2019-06-26T18:14:07.484Z,20.80
2019-06-26T18:16:55.467Z,20.30
2019-06-26T18:19:45.171Z,20.70
2019-06-26T18:22:33.054Z,20.80
2019-06-26T18:25:21.470Z,20.70
2019-06-26T18:28:09.292Z,20.40
2019-06-26T18:30:57.897Z,20.40
2019-06-26T18:33:46.424Z,20.30
2019-06-26T18:36:34.594Z,20.70
2019-06-26T18:39:22.375Z,20.40
2019-06-26T18:42:10.474Z,20.50
2019-06-26T18:44:58.306Z,20.10
2019-06-26T18:47:46.198Z,20.40
2019-06-26T18:50:34.641Z,20.60
2019-06-26T18:53:23.094Z,20.40
2019-06-26T18:56:10.822Z,20.20
2019-06-26T18:58:59.362Z,19.80
2019-06-26T19:01:47.196Z,19.70
2019-06-26T19:04:37.101Z,19.30
2019-06-26T19:07:25.046Z,19.10
2019-06-26T19:10:13.896Z,19.10
2019-06-26T19:13:02.299Z,19.00
2019-06-26T19:15:50.193Z,18.90
2019-06-26T19:18:37.993Z,18.80
2019-06-26T19:21:25.998Z,18.80
2019-06-26T19:24:14.740Z,18.70
2019-06-26T19:27:05.247Z,18.60
2019-06-26T19:29:51.953Z,18.60
2019-06-26T19:32:39.737Z,18.40
2019-06-26T19:35:28.537Z,18.40
2019-06-26T19:38:16.240Z,18.50
2019-06-26T19:41:07.569Z,18.40
2019-06-26T19:43:54.092Z,18.30
2019-06-26T19:46:42.518Z,18.30
2019-06-26T19:49:32.901Z,18.20
2019-06-26T19:52:21.591Z,18.10
2019-06-26T19:55:13.158Z,18.10
2019-06-26T19:58:01.045Z,18.10
2019-06-26T20:00:48.786Z,18.10
2019-06-26T20:03:36.807Z,18.10
2019-06-26T20:06:25.625Z,18.20
2019-06-26T20:09:18.760Z,18.10
2019-06-26T20:12:07.667Z,18.00
2019-06-26T20:14:55.293Z,18.00
2019-06-26T20:17:43.062Z,18.00
2019-06-26T20:20:31.301Z,18.00
2019-06-26T20:23:19.530Z,17.90
2019-06-26T20:26:07.251Z,17.90
2019-06-26T20:28:56.429Z,17.90
2019-06-26T20:31:44.177Z,17.80
2019-06-26T20:34:32.940Z,17.80
2019-06-26T20:37:21.419Z,17.80
2019-06-26T20:40:12.825Z,17.80
2019-06-26T20:43:00.969Z,17.80
2019-06-26T20:45:48.772Z,17.80
2019-06-26T20:48:37.456Z,17.80
2019-06-26T20:51:25.105Z,17.80
2019-06-26T20:54:13.081Z,17.80
2019-06-26T20:57:01.508Z,17.80
2019-06-26T20:59:49.753Z,17.80
2019-06-26T21:02:38.777Z,17.80
2019-06-26T21:05:28.862Z,17.70
2019-06-26T21:08:16.582Z,17.70
2019-06-26T21:11:04.684Z,17.70
2019-06-26T21:13:54.147Z,17.70
2019-06-26T21:16:42.644Z,17.70
2019-06-26T21:19:30.457Z,17.70
2019-06-26T21:22:20.059Z,17.70
2019-06-26T21:25:17.830Z,17.70
2019-06-26T21:27:57.383Z,17.60
2019-06-26T21:30:45.475Z,17.60
2019-06-26T21:33:34.075Z,17.60
2019-06-26T21:36:22.385Z,17.60
2019-06-26T21:39:10.117Z,17.60
2019-06-26T21:41:58.897Z,17.60
2019-06-26T21:44:47.176Z,17.60
2019-06-26T21:47:35.386Z,17.60
2019-06-26T21:50:23.280Z,17.50
2019-06-26T21:53:12.058Z,17.50
2019-06-26T21:56:00.505Z,17.50
2019-06-26T21:58:48.195Z,17.50
2019-06-26T22:01:36.380Z,17.50
2019-06-26T22:04:24.872Z,17.50
2019-06-26T22:07:12.724Z,17.50
2019-06-26T22:10:01.091Z,17.50
2019-06-26T22:12:49.119Z,17.40
2019-06-26T22:15:37.548Z,17.40
2019-06-26T22:18:25.770Z,17.40
2019-06-26T22:21:13.979Z,17.40
2019-06-26T22:24:01.944Z,17.40
2019-06-26T22:26:50.862Z,17.40
2019-06-26T22:29:39.064Z,17.40
2019-06-26T22:32:27.109Z,17.40
2019-06-26T22:35:16.066Z,17.30
2019-06-26T22:38:04.423Z,17.40
2019-06-26T22:40:52.467Z,17.30
2019-06-26T22:43:40.282Z,17.30
2019-06-26T22:46:28.336Z,17.20
2019-06-26T22:49:16.312Z,17.20
2019-06-26T22:52:04.382Z,17.20
2019-06-26T22:54:53.580Z,17.20
2019-06-26T22:57:41.913Z,17.20
2019-06-26T23:00:30.177Z,17.20
2019-06-26T23:03:18.831Z,17.20
2019-06-26T23:06:07.747Z,17.20
2019-06-26T23:08:56.088Z,17.10
2019-06-26T23:11:44.599Z,17.20
2019-06-26T23:14:32.826Z,17.10
2019-06-26T23:17:20.957Z,17.10
2019-06-26T23:20:09.572Z,17.10
2019-06-26T23:22:57.385Z,17.10
2019-06-26T23:25:45.238Z,17.10
2019-06-26T23:28:33.583Z,17.10
2019-06-26T23:31:22.019Z,17.10
2019-06-26T23:34:09.968Z,17.10
2019-06-26T23:36:58.094Z,17.10
2019-06-26T23:39:46.563Z,17.00
2019-06-26T23:42:34.962Z,17.00
2019-06-26T23:45:23.282Z,17.00
2019-06-26T23:48:11.285Z,17.00
2019-06-26T23:50:59.561Z,17.00
2019-06-26T23:53:47.838Z,17.00
2019-06-26T23:56:40.273Z,17.00
2019-06-26T23:59:25.262Z,17.00
